sensor_id;sensor_type;location;lat;lon;timestamp;P1;durP1;ratioP1;P2;durP2;ratioP2
51515;SDS011;37603;55.614;37.326;2023-05-16T00:01:49;13.9;;;8.3;;
51515;SDS011;37603;55.614;37.326;2023-05-16T00:07:48;14.8;;;8.1;;
51515;SDS011;37603;55.614;37.326;2023-05-16T00:13:47;15.5;;;8.6;;
51515;SDS011;37603;55.614;37.326;2023-05-16T00:19:46;13.7;;;8.5;;
51515;SDS011;37603;55.614;37.326;2023-05-16T00:25:45;21.7;;;9.3;;
51515;SDS011;37603;55.614;37.326;2023-05-16T00:31:44;14.1;;;8.9;;
51515;SDS011;37603;55.614;37.326;2023-05-16T00:37:44;17.0;;;9.6;;
51515;SDS011;37603;55.614;37.326;2023-05-16T00:43:43;15.3;;;9.5;;
51515;SDS011;37603;55.614;37.326;2023-05-16T00:49:42;14.7;;;10.0;;
51515;SDS011;37603;55.614;37.326;2023-05-16T00:55:41;17.5;;;10.0;;
51515;SDS011;37603;55.614;37.326;2023-05-16T01:01:40;17.3;;;9.5;;
51515;SDS011;37603;55.614;37.326;2023-05-16T01:07:39;16.7;;;9.5;;
51515;SDS011;37603;55.614;37.326;2023-05-16T01:13:40;17.8;;;10.8;;
51515;SDS011;37603;55.614;37.326;2023-05-16T01:19:45;22.7;;;13.8;;
51515;SDS011;37603;55.614;37.326;2023-05-16T01:25:38;19.5;;;12.2;;
51515;SDS011;37603;55.614;37.326;2023-05-16T01:31:35;18.6;;;12.2;;
51515;SDS011;37603;55.614;37.326;2023-05-16T01:37:35;19.3;;;11.4;;
51515;SDS011;37603;55.614;37.326;2023-05-16T01:43:34;17.7;;;10.7;;
51515;SDS011;37603;55.614;37.326;2023-05-16T01:49:34;18.3;;;11.0;;
51515;SDS011;37603;55.614;37.326;2023-05-16T01:55:34;17.9;;;10.4;;
51515;SDS011;37603;55.614;37.326;2023-05-16T02:01:31;24.6;;;15.3;;
51515;SDS011;37603;55.614;37.326;2023-05-16T02:07:30;26.2;;;17.2;;
51515;SDS011;37603;55.614;37.326;2023-05-16T02:13:29;23.9;;;15.3;;
51515;SDS011;37603;55.614;37.326;2023-05-16T02:19:28;22.8;;;14.8;;
51515;SDS011;37603;55.614;37.326;2023-05-16T02:25:27;24.0;;;14.3;;
51515;SDS011;37603;55.614;37.326;2023-05-16T02:31:26;18.5;;;13.1;;
51515;SDS011;37603;55.614;37.326;2023-05-16T02:37:25;20.0;;;13.1;;
51515;SDS011;37603;55.614;37.326;2023-05-16T02:43:24;20.2;;;12.7;;
51515;SDS011;37603;55.614;37.326;2023-05-16T02:49:23;21.3;;;12.3;;
51515;SDS011;37603;55.614;37.326;2023-05-16T02:55:22;19.7;;;11.6;;
51515;SDS011;37603;55.614;37.326;2023-05-16T03:01:21;20.5;;;11.4;;
51515;SDS011;37603;55.614;37.326;2023-05-16T03:07:20;20.1;;;11.1;;
51515;SDS011;37603;55.614;37.326;2023-05-16T03:13:19;21.9;;;12.6;;
51515;SDS011;37603;55.614;37.326;2023-05-16T03:19:19;22.6;;;13.9;;
51515;SDS011;37603;55.614;37.326;2023-05-16T03:25:18;25.7;;;13.1;;
51515;SDS011;37603;55.614;37.326;2023-05-16T03:31:17;23.1;;;11.2;;
51515;SDS011;37603;55.614;37.326;2023-05-16T03:37:16;20.3;;;10.4;;
51515;SDS011;37603;55.614;37.326;2023-05-16T03:43:15;21.6;;;10.6;;
51515;SDS011;37603;55.614;37.326;2023-05-16T03:49:14;23.5;;;11.2;;
51515;SDS011;37603;55.614;37.326;2023-05-16T03:55:13;19.8;;;11.4;;
51515;SDS011;37603;55.614;37.326;2023-05-16T04:01:13;19.7;;;10.0;;
51515;SDS011;37603;55.614;37.326;2023-05-16T04:07:12;17.7;;;9.9;;
51515;SDS011;37603;55.614;37.326;2023-05-16T04:13:11;21.2;;;9.0;;
51515;SDS011;37603;55.614;37.326;2023-05-16T04:19:10;17.0;;;8.2;;
51515;SDS011;37603;55.614;37.326;2023-05-16T04:25:09;17.9;;;8.5;;
51515;SDS011;37603;55.614;37.326;2023-05-16T04:31:09;23.9;;;10.9;;
51515;SDS011;37603;55.614;37.326;2023-05-16T04:37:08;17.1;;;10.3;;
51515;SDS011;37603;55.614;37.326;2023-05-16T04:43:07;12.6;;;6.8;;
51515;SDS011;37603;55.614;37.326;2023-05-16T04:49:07;12.9;;;8.3;;
51515;SDS011;37603;55.614;37.326;2023-05-16T04:55:06;12.5;;;7.3;;
51515;SDS011;37603;55.614;37.326;2023-05-16T05:01:05;10.3;;;6.8;;
51515;SDS011;37603;55.614;37.326;2023-05-16T05:07:05;11.2;;;5.0;;
51515;SDS011;37603;55.614;37.326;2023-05-16T05:19:04;7.8;;;4.0;;
51515;SDS011;37603;55.614;37.326;2023-05-16T05:25:04;7.2;;;3.5;;
51515;SDS011;37603;55.614;37.326;2023-05-16T05:31:03;8.7;;;3.8;;
51515;SDS011;37603;55.614;37.326;2023-05-16T05:37:03;7.2;;;3.7;;
51515;SDS011;37603;55.614;37.326;2023-05-16T05:43:03;9.2;;;3.5;;
51515;SDS011;37603;55.614;37.326;2023-05-16T05:49:02;8.8;;;4.5;;
51515;SDS011;37603;55.614;37.326;2023-05-16T05:55:02;8.5;;;5.0;;
51515;SDS011;37603;55.614;37.326;2023-05-16T06:01:02;9.2;;;3.8;;
51515;SDS011;37603;55.614;37.326;2023-05-16T06:07:01;10.5;;;3.4;;
51515;SDS011;37603;55.614;37.326;2023-05-16T06:13:01;7.2;;;3.7;;
51515;SDS011;37603;55.614;37.326;2023-05-16T06:19:02;6.2;;;2.5;;
51515;SDS011;37603;55.614;37.326;2023-05-16T06:25:01;6.8;;;1.9;;
51515;SDS011;37603;55.614;37.326;2023-05-16T06:31:01;4.6;;;1.3;;
51515;SDS011;37603;55.614;37.326;2023-05-16T06:37:00;5.8;;;1.6;;
51515;SDS011;37603;55.614;37.326;2023-05-16T06:43:00;9.4;;;4.8;;
51515;SDS011;37603;55.614;37.326;2023-05-16T06:49:00;4.0;;;1.6;;
51515;SDS011;37603;55.614;37.326;2023-05-16T06:55:00;5.7;;;1.5;;
51515;SDS011;37603;55.614;37.326;2023-05-16T07:01:00;3.3;;;1.3;;
51515;SDS011;37603;55.614;37.326;2023-05-16T07:07:00;2.9;;;1.1;;
51515;SDS011;37603;55.614;37.326;2023-05-16T07:13:00;5.1;;;1.3;;
51515;SDS011;37603;55.614;37.326;2023-05-16T07:19:00;5.4;;;1.1;;
51515;SDS011;37603;55.614;37.326;2023-05-16T07:25:00;4.3;;;1.0;;
51515;SDS011;37603;55.614;37.326;2023-05-16T07:31:00;5.2;;;1.0;;
51515;SDS011;37603;55.614;37.326;2023-05-16T07:37:00;5.3;;;1.1;;
51515;SDS011;37603;55.614;37.326;2023-05-16T07:43:00;3.6;;;1.8;;
51515;SDS011;37603;55.614;37.326;2023-05-16T07:49:00;7.8;;;2.4;;
51515;SDS011;37603;55.614;37.326;2023-05-16T07:55:00;3.3;;;1.2;;
51515;SDS011;37603;55.614;37.326;2023-05-16T08:00:59;5.3;;;3.3;;
51515;SDS011;37603;55.614;37.326;2023-05-16T08:07:00;9.5;;;2.1;;
51515;SDS011;37603;55.614;37.326;2023-05-16T08:12:59;5.0;;;3.3;;
51515;SDS011;37603;55.614;37.326;2023-05-16T08:18:59;3.9;;;1.4;;
51515;SDS011;37603;55.614;37.326;2023-05-16T08:24:59;3.2;;;2.0;;
51515;SDS011;37603;55.614;37.326;2023-05-16T08:30:59;6.7;;;2.8;;
51515;SDS011;37603;55.614;37.326;2023-05-16T08:36:59;12.4;;;10.2;;
51515;SDS011;37603;55.614;37.326;2023-05-16T08:42:59;3.9;;;0.9;;
51515;SDS011;37603;55.614;37.326;2023-05-16T08:48:59;2.4;;;1.6;;
51515;SDS011;37603;55.614;37.326;2023-05-16T08:55:00;3.5;;;1.5;;
51515;SDS011;37603;55.614;37.326;2023-05-16T09:00:59;5.2;;;2.6;;
51515;SDS011;37603;55.614;37.326;2023-05-16T09:06:59;5.1;;;2.1;;
51515;SDS011;37603;55.614;37.326;2023-05-16T09:12:59;21.0;;;17.5;;
51515;SDS011;37603;55.614;37.326;2023-05-16T09:18:59;7.6;;;4.2;;
51515;SDS011;37603;55.614;37.326;2023-05-16T09:24:59;5.9;;;1.8;;
51515;SDS011;37603;55.614;37.326;2023-05-16T09:36:59;2.7;;;1.3;;
51515;SDS011;37603;55.614;37.326;2023-05-16T09:43:02;3.5;;;2.4;;
51515;SDS011;37603;55.614;37.326;2023-05-16T09:48:58;3.9;;;2.1;;
51515;SDS011;37603;55.614;37.326;2023-05-16T09:54:58;4.2;;;1.6;;
51515;SDS011;37603;55.614;37.326;2023-05-16T10:00:58;2.3;;;1.5;;
51515;SDS011;37603;55.614;37.326;2023-05-16T10:06:58;2.1;;;1.4;;
51515;SDS011;37603;55.614;37.326;2023-05-16T10:12:58;5.2;;;2.8;;
51515;SDS011;37603;55.614;37.326;2023-05-16T10:18:58;8.0;;;0.9;;
51515;SDS011;37603;55.614;37.326;2023-05-16T10:25:00;3.3;;;1.3;;
51515;SDS011;37603;55.614;37.326;2023-05-16T10:36:58;3.2;;;1.5;;
51515;SDS011;37603;55.614;37.326;2023-05-16T10:42:58;5.4;;;3.0;;
51515;SDS011;37603;55.614;37.326;2023-05-16T10:48:57;4.6;;;0.9;;
51515;SDS011;37603;55.614;37.326;2023-05-16T10:54:57;8.0;;;5.5;;
51515;SDS011;37603;55.614;37.326;2023-05-16T11:06:56;4.1;;;1.8;;
51515;SDS011;37603;55.614;37.326;2023-05-16T11:13:01;4.7;;;1.6;;
51515;SDS011;37603;55.614;37.326;2023-05-16T11:19:03;3.6;;;0.9;;
51515;SDS011;37603;55.614;37.326;2023-05-16T11:24:57;3.9;;;1.6;;
51515;SDS011;37603;55.614;37.326;2023-05-16T11:30:56;5.2;;;3.5;;
51515;SDS011;37603;55.614;37.326;2023-05-16T11:36:56;6.8;;;3.2;;
51515;SDS011;37603;55.614;37.326;2023-05-16T11:42:58;5.8;;;3.3;;
51515;SDS011;37603;55.614;37.326;2023-05-16T11:48:55;3.2;;;1.2;;
51515;SDS011;37603;55.614;37.326;2023-05-16T11:54:55;6.9;;;3.1;;
51515;SDS011;37603;55.614;37.326;2023-05-16T12:00:55;2.9;;;1.1;;
51515;SDS011;37603;55.614;37.326;2023-05-16T12:06:57;10.4;;;7.4;;
51515;SDS011;37603;55.614;37.326;2023-05-16T12:12:55;7.8;;;2.4;;
51515;SDS011;37603;55.614;37.326;2023-05-16T12:18:55;4.6;;;1.8;;
51515;SDS011;37603;55.614;37.326;2023-05-16T12:24:54;3.0;;;1.0;;
51515;SDS011;37603;55.614;37.326;2023-05-16T12:30:54;6.7;;;1.5;;
51515;SDS011;37603;55.614;37.326;2023-05-16T12:36:54;4.5;;;1.7;;
51515;SDS011;37603;55.614;37.326;2023-05-16T12:42:54;3.7;;;2.3;;
51515;SDS011;37603;55.614;37.326;2023-05-16T12:48:59;9.1;;;4.0;;
51515;SDS011;37603;55.614;37.326;2023-05-16T12:54:54;10.2;;;6.5;;
51515;SDS011;37603;55.614;37.326;2023-05-16T13:00:54;3.1;;;0.9;;
51515;SDS011;37603;55.614;37.326;2023-05-16T13:06:53;5.1;;;4.6;;
51515;SDS011;37603;55.614;37.326;2023-05-16T13:12:53;6.4;;;2.6;;
51515;SDS011;37603;55.614;37.326;2023-05-16T13:18:53;4.4;;;1.9;;
51515;SDS011;37603;55.614;37.326;2023-05-16T13:24:53;5.3;;;2.0;;
51515;SDS011;37603;55.614;37.326;2023-05-16T13:30:53;5.1;;;2.8;;
51515;SDS011;37603;55.614;37.326;2023-05-16T13:36:53;6.6;;;3.7;;
51515;SDS011;37603;55.614;37.326;2023-05-16T13:42:53;5.1;;;2.5;;
51515;SDS011;37603;55.614;37.326;2023-05-16T13:48:53;6.5;;;2.9;;
51515;SDS011;37603;55.614;37.326;2023-05-16T13:54:52;8.2;;;3.6;;
51515;SDS011;37603;55.614;37.326;2023-05-16T14:00:52;4.5;;;2.0;;
51515;SDS011;37603;55.614;37.326;2023-05-16T14:06:52;5.4;;;2.6;;
51515;SDS011;37603;55.614;37.326;2023-05-16T14:12:52;9.0;;;1.9;;
51515;SDS011;37603;55.614;37.326;2023-05-16T14:18:52;6.1;;;3.7;;
51515;SDS011;37603;55.614;37.326;2023-05-16T14:24:52;2.8;;;1.3;;
51515;SDS011;37603;55.614;37.326;2023-05-16T14:30:52;7.5;;;2.8;;
51515;SDS011;37603;55.614;37.326;2023-05-16T14:36:52;4.3;;;1.7;;
51515;SDS011;37603;55.614;37.326;2023-05-16T14:42:51;3.3;;;1.4;;
51515;SDS011;37603;55.614;37.326;2023-05-16T14:48:51;3.2;;;1.5;;
51515;SDS011;37603;55.614;37.326;2023-05-16T14:54:51;4.7;;;1.2;;
51515;SDS011;37603;55.614;37.326;2023-05-16T15:00:51;3.4;;;1.6;;
51515;SDS011;37603;55.614;37.326;2023-05-16T15:06:51;3.9;;;1.3;;
51515;SDS011;37603;55.614;37.326;2023-05-16T15:12:51;3.8;;;2.0;;
51515;SDS011;37603;55.614;37.326;2023-05-16T15:18:50;5.9;;;3.1;;
51515;SDS011;37603;55.614;37.326;2023-05-16T15:30:50;4.3;;;1.8;;
51515;SDS011;37603;55.614;37.326;2023-05-16T15:36:50;8.0;;;4.3;;
51515;SDS011;37603;55.614;37.326;2023-05-16T15:42:50;10.7;;;4.9;;
51515;SDS011;37603;55.614;37.326;2023-05-16T15:48:50;6.6;;;2.5;;
51515;SDS011;37603;55.614;37.326;2023-05-16T15:54:49;6.0;;;2.0;;
51515;SDS011;37603;55.614;37.326;2023-05-16T16:00:49;5.8;;;2.4;;
51515;SDS011;37603;55.614;37.326;2023-05-16T16:06:49;8.6;;;4.3;;
51515;SDS011;37603;55.614;37.326;2023-05-16T16:18:49;10.7;;;7.3;;
51515;SDS011;37603;55.614;37.326;2023-05-16T16:24:48;9.5;;;5.5;;
51515;SDS011;37603;55.614;37.326;2023-05-16T16:30:48;11.3;;;5.1;;
51515;SDS011;37603;55.614;37.326;2023-05-16T16:36:48;11.6;;;5.5;;
51515;SDS011;37603;55.614;37.326;2023-05-16T16:42:48;7.7;;;4.4;;
51515;SDS011;37603;55.614;37.326;2023-05-16T16:48:47;5.5;;;1.8;;
51515;SDS011;37603;55.614;37.326;2023-05-16T16:54:47;3.6;;;1.3;;
51515;SDS011;37603;55.614;37.326;2023-05-16T17:06:46;4.2;;;1.5;;
51515;SDS011;37603;55.614;37.326;2023-05-16T17:12:46;5.5;;;1.7;;
51515;SDS011;37603;55.614;37.326;2023-05-16T17:18:46;5.6;;;1.4;;
51515;SDS011;37603;55.614;37.326;2023-05-16T17:24:45;4.8;;;1.7;;
51515;SDS011;37603;55.614;37.326;2023-05-16T17:30:45;6.2;;;2.0;;
51515;SDS011;37603;55.614;37.326;2023-05-16T17:36:44;7.3;;;1.6;;
51515;SDS011;37603;55.614;37.326;2023-05-16T17:42:44;4.0;;;1.6;;
51515;SDS011;37603;55.614;37.326;2023-05-16T17:48:44;5.6;;;1.9;;
51515;SDS011;37603;55.614;37.326;2023-05-16T17:54:44;3.4;;;1.4;;
51515;SDS011;37603;55.614;37.326;2023-05-16T18:00:43;4.4;;;1.7;;
51515;SDS011;37603;55.614;37.326;2023-05-16T18:06:42;6.5;;;1.8;;
51515;SDS011;37603;55.614;37.326;2023-05-16T18:12:42;5.5;;;1.6;;
51515;SDS011;37603;55.614;37.326;2023-05-16T18:18:41;6.7;;;2.2;;
51515;SDS011;37603;55.614;37.326;2023-05-16T18:24:41;4.9;;;2.2;;
51515;SDS011;37603;55.614;37.326;2023-05-16T18:30:41;5.9;;;2.1;;
51515;SDS011;37603;55.614;37.326;2023-05-16T18:36:40;7.1;;;2.2;;
51515;SDS011;37603;55.614;37.326;2023-05-16T18:48:39;4.8;;;2.5;;
51515;SDS011;37603;55.614;37.326;2023-05-16T18:54:38;6.8;;;2.6;;
51515;SDS011;37603;55.614;37.326;2023-05-16T19:00:38;5.8;;;3.5;;
51515;SDS011;37603;55.614;37.326;2023-05-16T19:06:38;10.8;;;4.7;;
51515;SDS011;37603;55.614;37.326;2023-05-16T19:18:36;11.5;;;4.6;;
51515;SDS011;37603;55.614;37.326;2023-05-16T19:30:35;13.1;;;5.4;;
51515;SDS011;37603;55.614;37.326;2023-05-16T19:42:34;13.7;;;5.9;;
51515;SDS011;37603;55.614;37.326;2023-05-16T19:48:34;11.6;;;6.1;;
51515;SDS011;37603;55.614;37.326;2023-05-16T19:54:33;15.9;;;5.6;;
51515;SDS011;37603;55.614;37.326;2023-05-16T20:00:32;10.7;;;5.1;;
51515;SDS011;37603;55.614;37.326;2023-05-16T20:06:32;16.8;;;6.4;;
51515;SDS011;37603;55.614;37.326;2023-05-16T20:12:31;13.3;;;5.9;;
51515;SDS011;37603;55.614;37.326;2023-05-16T20:18:31;15.1;;;5.8;;
51515;SDS011;37603;55.614;37.326;2023-05-16T20:24:30;15.2;;;5.8;;
51515;SDS011;37603;55.614;37.326;2023-05-16T20:30:30;15.3;;;5.2;;
51515;SDS011;37603;55.614;37.326;2023-05-16T20:36:29;11.1;;;5.1;;
51515;SDS011;37603;55.614;37.326;2023-05-16T20:42:28;13.9;;;5.5;;
51515;SDS011;37603;55.614;37.326;2023-05-16T20:48:28;13.4;;;5.4;;
51515;SDS011;37603;55.614;37.326;2023-05-16T20:54:27;10.3;;;5.5;;
51515;SDS011;37603;55.614;37.326;2023-05-16T21:00:26;11.5;;;6.1;;
51515;SDS011;37603;55.614;37.326;2023-05-16T21:06:26;12.1;;;5.6;;
51515;SDS011;37603;55.614;37.326;2023-05-16T21:12:25;12.0;;;5.6;;
51515;SDS011;37603;55.614;37.326;2023-05-16T21:18:24;10.1;;;5.1;;
51515;SDS011;37603;55.614;37.326;2023-05-16T21:24:24;13.1;;;5.8;;
51515;SDS011;37603;55.614;37.326;2023-05-16T21:30:23;10.2;;;5.4;;
51515;SDS011;37603;55.614;37.326;2023-05-16T21:36:22;9.0;;;5.3;;
51515;SDS011;37603;55.614;37.326;2023-05-16T21:42:22;12.6;;;6.7;;
51515;SDS011;37603;55.614;37.326;2023-05-16T21:48:21;11.7;;;6.9;;
51515;SDS011;37603;55.614;37.326;2023-05-16T21:54:20;9.7;;;5.4;;
51515;SDS011;37603;55.614;37.326;2023-05-16T22:00:20;9.6;;;6.0;;
51515;SDS011;37603;55.614;37.326;2023-05-16T22:06:19;9.1;;;5.1;;
51515;SDS011;37603;55.614;37.326;2023-05-16T22:12:18;13.0;;;4.9;;
51515;SDS011;37603;55.614;37.326;2023-05-16T22:18:18;8.3;;;5.0;;
51515;SDS011;37603;55.614;37.326;2023-05-16T22:24:17;12.3;;;6.0;;
51515;SDS011;37603;55.614;37.326;2023-05-16T22:30:16;11.6;;;5.9;;
51515;SDS011;37603;55.614;37.326;2023-05-16T22:36:16;7.4;;;5.0;;
51515;SDS011;37603;55.614;37.326;2023-05-16T22:42:15;8.5;;;4.7;;
51515;SDS011;37603;55.614;37.326;2023-05-16T22:48:14;14.5;;;5.6;;
51515;SDS011;37603;55.614;37.326;2023-05-16T22:54:14;9.0;;;5.5;;
51515;SDS011;37603;55.614;37.326;2023-05-16T23:00:13;10.3;;;5.4;;
51515;SDS011;37603;55.614;37.326;2023-05-16T23:06:12;10.1;;;5.0;;
51515;SDS011;37603;55.614;37.326;2023-05-16T23:12:11;9.9;;;4.5;;
51515;SDS011;37603;55.614;37.326;2023-05-16T23:18:11;9.3;;;5.5;;
51515;SDS011;37603;55.614;37.326;2023-05-16T23:24:10;10.2;;;6.4;;
51515;SDS011;37603;55.614;37.326;2023-05-16T23:30:10;8.7;;;5.5;;
51515;SDS011;37603;55.614;37.326;2023-05-16T23:36:08;9.3;;;6.0;;
51515;SDS011;37603;55.614;37.326;2023-05-16T23:42:08;10.3;;;5.2;;
51515;SDS011;37603;55.614;37.326;2023-05-16T23:48:09;6.9;;;4.8;;
51515;SDS011;37603;55.614;37.326;2023-05-16T23:54:06;8.0;;;5.4;;
